sensor_id;sensor_type;location;lat;lon;timestamp;temperature;humidity
19031;DHT22;9648;51.130;13.978;2022-08-11T00:01:34;14.10;99.90
19031;DHT22;9648;51.130;13.978;2022-08-11T00:04:03;14.10;99.90
19031;DHT22;9648;51.130;13.978;2022-08-11T00:06:34;14.00;99.90
19031;DHT22;9648;51.130;13.978;2022-08-11T00:09:02;14.00;99.90
19031;DHT22;9648;51.130;13.978;2022-08-11T00:11:34;14.00;99.90
19031;DHT22;9648;51.130;13.978;2022-08-11T00:14:02;14.00;99.90
19031;DHT22;9648;51.130;13.978;2022-08-11T00:16:30;13.90;99.90
19031;DHT22;9648;51.130;13.978;2022-08-11T00:18:59;13.90;99.90
19031;DHT22;9648;51.130;13.978;2022-08-11T00:21:27;13.90;99.90
19031;DHT22;9648;51.130;13.978;2022-08-11T00:23:57;13.80;99.90
19031;DHT22;9648;51.130;13.978;2022-08-11T00:26:26;13.80;99.90
19031;DHT22;9648;51.130;13.978;2022-08-11T00:28:53;13.80;99.90
19031;DHT22;9648;51.130;13.978;2022-08-11T00:31:23;13.80;99.90
19031;DHT22;9648;51.130;13.978;2022-08-11T00:33:52;13.70;99.90
19031;DHT22;9648;51.130;13.978;2022-08-11T00:36:26;13.70;99.90
19031;DHT22;9648;51.130;13.978;2022-08-11T00:39:03;13.70;99.90
19031;DHT22;9648;51.130;13.978;2022-08-11T00:41:33;13.60;99.90
19031;DHT22;9648;51.130;13.978;2022-08-11T00:44:35;13.60;99.90
19031;DHT22;9648;51.130;13.978;2022-08-11T00:47:16;13.60;99.90
19031;DHT22;9648;51.130;13.978;2022-08-11T00:49:57;13.50;99.90
19031;DHT22;9648;51.130;13.978;2022-08-11T00:52:49;13.50;99.90
19031;DHT22;9648;51.130;13.978;2022-08-11T01:01:47;13.40;99.90
19031;DHT22;9648;51.130;13.978;2022-08-11T01:04:44;13.40;99.90
19031;DHT22;9648;51.130;13.978;2022-08-11T01:07:40;13.30;99.90
19031;DHT22;9648;51.130;13.978;2022-08-11T01:10:26;13.30;99.90
19031;DHT22;9648;51.130;13.978;2022-08-11T01:13:07;13.30;99.90
19031;DHT22;9648;51.130;13.978;2022-08-11T01:16:04;13.30;99.90
19031;DHT22;9648;51.130;13.978;2022-08-11T01:19:01;13.20;99.90
19031;DHT22;9648;51.130;13.978;2022-08-11T01:22:04;13.20;99.90
19031;DHT22;9648;51.130;13.978;2022-08-11T01:31:36;13.10;99.90
19031;DHT22;9648;51.130;13.978;2022-08-11T01:37:57;13.00;99.90
19031;DHT22;9648;51.130;13.978;2022-08-11T01:40:54;13.00;99.90
19031;DHT22;9648;51.130;13.978;2022-08-11T01:43:58;13.00;99.90
19031;DHT22;9648;51.130;13.978;2022-08-11T01:46:51;13.00;99.90
19031;DHT22;9648;51.130;13.978;2022-08-11T01:49:23;12.90;99.90
19031;DHT22;9648;51.130;13.978;2022-08-11T01:52:07;12.90;99.90
19031;DHT22;9648;51.130;13.978;2022-08-11T01:54:42;12.90;99.90
19031;DHT22;9648;51.130;13.978;2022-08-11T01:57:19;12.90;99.90
19031;DHT22;9648;51.130;13.978;2022-08-11T01:59:55;12.80;99.90
19031;DHT22;9648;51.130;13.978;2022-08-11T02:02:32;12.80;99.90
19031;DHT22;9648;51.130;13.978;2022-08-11T02:05:26;12.80;99.90
19031;DHT22;9648;51.130;13.978;2022-08-11T02:07:58;12.80;99.90
19031;DHT22;9648;51.130;13.978;2022-08-11T02:10:34;12.70;99.90
19031;DHT22;9648;51.130;13.978;2022-08-11T02:13:33;12.70;99.90
19031;DHT22;9648;51.130;13.978;2022-08-11T02:16:09;12.70;99.90
19031;DHT22;9648;51.130;13.978;2022-08-11T02:18:41;12.70;99.90
19031;DHT22;9648;51.130;13.978;2022-08-11T02:21:30;12.60;99.90
19031;DHT22;9648;51.130;13.978;2022-08-11T02:24:27;12.60;99.90
19031;DHT22;9648;51.130;13.978;2022-08-11T02:27:01;12.50;99.90
19031;DHT22;9648;51.130;13.978;2022-08-11T02:29:33;12.50;99.90
19031;DHT22;9648;51.130;13.978;2022-08-11T02:32:06;12.50;99.90
19031;DHT22;9648;51.130;13.978;2022-08-11T02:34:59;12.40;99.90
19031;DHT22;9648;51.130;13.978;2022-08-11T02:37:36;12.40;99.90
19031;DHT22;9648;51.130;13.978;2022-08-11T02:40:16;12.40;99.90
19031;DHT22;9648;51.130;13.978;2022-08-11T02:42:59;12.40;99.90
19031;DHT22;9648;51.130;13.978;2022-08-11T02:45:36;12.40;99.90
19031;DHT22;9648;51.130;13.978;2022-08-11T02:48:11;12.40;99.90
19031;DHT22;9648;51.130;13.978;2022-08-11T02:51:11;12.30;99.90
19031;DHT22;9648;51.130;13.978;2022-08-11T02:53:48;12.40;99.90
19031;DHT22;9648;51.130;13.978;2022-08-11T02:56:21;12.40;99.90
19031;DHT22;9648;51.130;13.978;2022-08-11T02:58:58;12.30;99.90
19031;DHT22;9648;51.130;13.978;2022-08-11T03:01:50;12.30;99.90
19031;DHT22;9648;51.130;13.978;2022-08-11T03:04:24;12.30;99.90
19031;DHT22;9648;51.130;13.978;2022-08-11T03:07:00;12.30;99.90
19031;DHT22;9648;51.130;13.978;2022-08-11T03:09:43;12.30;99.90
19031;DHT22;9648;51.130;13.978;2022-08-11T03:12:15;12.30;99.90
19031;DHT22;9648;51.130;13.978;2022-08-11T03:15:08;12.30;99.90
19031;DHT22;9648;51.130;13.978;2022-08-11T03:18:00;12.30;99.90
19031;DHT22;9648;51.130;13.978;2022-08-11T03:20:35;12.20;99.90
19031;DHT22;9648;51.130;13.978;2022-08-11T03:23:08;12.20;99.90
19031;DHT22;9648;51.130;13.978;2022-08-11T03:25:44;12.20;99.90
19031;DHT22;9648;51.130;13.978;2022-08-11T03:28:24;12.20;99.90
19031;DHT22;9648;51.130;13.978;2022-08-11T03:31:04;12.20;99.90
19031;DHT22;9648;51.130;13.978;2022-08-11T03:33:37;12.10;99.90
19031;DHT22;9648;51.130;13.978;2022-08-11T03:36:40;12.10;99.90
19031;DHT22;9648;51.130;13.978;2022-08-11T03:39:21;12.00;99.90
19031;DHT22;9648;51.130;13.978;2022-08-11T03:41:56;12.00;99.90
19031;DHT22;9648;51.130;13.978;2022-08-11T03:44:38;12.00;99.90
19031;DHT22;9648;51.130;13.978;2022-08-11T03:47:22;12.00;99.90
19031;DHT22;9648;51.130;13.978;2022-08-11T03:50:02;11.90;99.90
19031;DHT22;9648;51.130;13.978;2022-08-11T03:52:41;11.90;99.90
19031;DHT22;9648;51.130;13.978;2022-08-11T03:55:17;11.90;99.90
19031;DHT22;9648;51.130;13.978;2022-08-11T03:58:20;11.90;99.90
19031;DHT22;9648;51.130;13.978;2022-08-11T04:01:19;11.90;99.90
19031;DHT22;9648;51.130;13.978;2022-08-11T04:04:14;12.00;99.90
19031;DHT22;9648;51.130;13.978;2022-08-11T04:06:58;12.00;99.90
19031;DHT22;9648;51.130;13.978;2022-08-11T04:13:12;11.90;99.90
19031;DHT22;9648;51.130;13.978;2022-08-11T04:16:05;11.90;99.90
19031;DHT22;9648;51.130;13.978;2022-08-11T04:19:12;12.00;99.90
19031;DHT22;9648;51.130;13.978;2022-08-11T04:22:15;12.00;99.90
19031;DHT22;9648;51.130;13.978;2022-08-11T04:34:35;12.10;99.90
19031;DHT22;9648;51.130;13.978;2022-08-11T04:37:42;12.10;99.90
19031;DHT22;9648;51.130;13.978;2022-08-11T04:46:54;12.30;99.90
19031;DHT22;9648;51.130;13.978;2022-08-11T04:49:55;12.40;99.90
19031;DHT22;9648;51.130;13.978;2022-08-11T04:53:24;12.50;99.90
19031;DHT22;9648;51.130;13.978;2022-08-11T04:56:15;12.60;99.90
19031;DHT22;9648;51.130;13.978;2022-08-11T04:59:14;12.70;99.90
19031;DHT22;9648;51.130;13.978;2022-08-11T05:05:18;12.80;99.90
19031;DHT22;9648;51.130;13.978;2022-08-11T05:08:47;12.90;99.90
19031;DHT22;9648;51.130;13.978;2022-08-11T05:11:38;13.00;99.90
19031;DHT22;9648;51.130;13.978;2022-08-11T05:14:28;13.10;99.90
19031;DHT22;9648;51.130;13.978;2022-08-11T05:17:15;13.20;99.90
19031;DHT22;9648;51.130;13.978;2022-08-11T05:20:00;13.30;99.90
19031;DHT22;9648;51.130;13.978;2022-08-11T05:22:49;13.40;99.90
19031;DHT22;9648;51.130;13.978;2022-08-11T05:25:35;13.50;99.90
19031;DHT22;9648;51.130;13.978;2022-08-11T05:28:29;13.60;99.90
19031;DHT22;9648;51.130;13.978;2022-08-11T05:31:15;13.80;99.90
19031;DHT22;9648;51.130;13.978;2022-08-11T05:34:08;13.90;99.90
19031;DHT22;9648;51.130;13.978;2022-08-11T05:36:56;14.10;99.90
19031;DHT22;9648;51.130;13.978;2022-08-11T05:39:29;14.30;99.90
19031;DHT22;9648;51.130;13.978;2022-08-11T05:42:16;14.40;99.90
19031;DHT22;9648;51.130;13.978;2022-08-11T05:45:04;14.50;99.90
19031;DHT22;9648;51.130;13.978;2022-08-11T05:47:53;14.70;99.90
19031;DHT22;9648;51.130;13.978;2022-08-11T05:50:38;15.00;99.90
19031;DHT22;9648;51.130;13.978;2022-08-11T05:53:23;15.20;99.90
19031;DHT22;9648;51.130;13.978;2022-08-11T05:56:09;15.40;99.90
19031;DHT22;9648;51.130;13.978;2022-08-11T05:58:43;15.60;99.90
19031;DHT22;9648;51.130;13.978;2022-08-11T06:01:13;15.90;99.90
19031;DHT22;9648;51.130;13.978;2022-08-11T06:03:49;16.00;99.90
19031;DHT22;9648;51.130;13.978;2022-08-11T06:06:36;16.20;99.90
19031;DHT22;9648;51.130;13.978;2022-08-11T06:09:06;16.40;99.90
19031;DHT22;9648;51.130;13.978;2022-08-11T06:11:38;16.60;99.90
19031;DHT22;9648;51.130;13.978;2022-08-11T06:14:07;16.70;99.90
19031;DHT22;9648;51.130;13.978;2022-08-11T06:16:35;16.90;99.90
19031;DHT22;9648;51.130;13.978;2022-08-11T06:19:03;17.00;99.90
19031;DHT22;9648;51.130;13.978;2022-08-11T06:21:32;17.10;99.90
19031;DHT22;9648;51.130;13.978;2022-08-11T06:24:01;17.30;99.90
19031;DHT22;9648;51.130;13.978;2022-08-11T06:26:29;17.40;99.90
19031;DHT22;9648;51.130;13.978;2022-08-11T06:28:59;17.50;99.90
19031;DHT22;9648;51.130;13.978;2022-08-11T06:31:26;17.70;99.90
19031;DHT22;9648;51.130;13.978;2022-08-11T06:33:58;17.80;99.90
19031;DHT22;9648;51.130;13.978;2022-08-11T06:36:31;18.00;99.90
19031;DHT22;9648;51.130;13.978;2022-08-11T06:39:05;18.20;99.90
19031;DHT22;9648;51.130;13.978;2022-08-11T06:41:39;18.30;99.90
19031;DHT22;9648;51.130;13.978;2022-08-11T06:44:23;18.50;99.10
19031;DHT22;9648;51.130;13.978;2022-08-11T06:46:53;18.70;97.60
19031;DHT22;9648;51.130;13.978;2022-08-11T06:49:32;18.90;95.80
19031;DHT22;9648;51.130;13.978;2022-08-11T06:52:18;19.00;95.40
19031;DHT22;9648;51.130;13.978;2022-08-11T06:54:50;19.20;94.60
19031;DHT22;9648;51.130;13.978;2022-08-11T06:57:19;19.30;93.70
19031;DHT22;9648;51.130;13.978;2022-08-11T07:00:07;19.40;92.10
19031;DHT22;9648;51.130;13.978;2022-08-11T07:02:59;19.60;91.60
19031;DHT22;9648;51.130;13.978;2022-08-11T07:05:39;19.60;90.00
19031;DHT22;9648;51.130;13.978;2022-08-11T07:08:33;19.70;90.10
19031;DHT22;9648;51.130;13.978;2022-08-11T07:11:58;19.80;88.80
19031;DHT22;9648;51.130;13.978;2022-08-11T07:14:49;20.00;86.10
19031;DHT22;9648;51.130;13.978;2022-08-11T07:17:40;20.20;85.00
19031;DHT22;9648;51.130;13.978;2022-08-11T07:20:09;20.40;81.50
19031;DHT22;9648;51.130;13.978;2022-08-11T07:22:57;20.50;80.20
19031;DHT22;9648;51.130;13.978;2022-08-11T07:25:45;20.70;76.20
19031;DHT22;9648;51.130;13.978;2022-08-11T07:28:28;20.80;75.00
19031;DHT22;9648;51.130;13.978;2022-08-11T07:31:17;20.90;73.50
19031;DHT22;9648;51.130;13.978;2022-08-11T07:33:50;21.00;71.20
19031;DHT22;9648;51.130;13.978;2022-08-11T07:36:21;21.10;69.70
19031;DHT22;9648;51.130;13.978;2022-08-11T07:38:49;21.30;68.30
19031;DHT22;9648;51.130;13.978;2022-08-11T07:41:19;21.50;68.30
19031;DHT22;9648;51.130;13.978;2022-08-11T07:43:49;21.60;66.20
19031;DHT22;9648;51.130;13.978;2022-08-11T07:46:17;21.80;64.60
19031;DHT22;9648;51.130;13.978;2022-08-11T07:49:06;21.90;63.40
19031;DHT22;9648;51.130;13.978;2022-08-11T07:51:52;22.00;63.30
19031;DHT22;9648;51.130;13.978;2022-08-11T07:54:37;22.20;60.90
19031;DHT22;9648;51.130;13.978;2022-08-11T07:57:06;22.20;60.20
19031;DHT22;9648;51.130;13.978;2022-08-11T07:59:52;22.30;59.50
19031;DHT22;9648;51.130;13.978;2022-08-11T08:02:37;22.50;58.20
19031;DHT22;9648;51.130;13.978;2022-08-11T08:05:23;22.50;57.90
19031;DHT22;9648;51.130;13.978;2022-08-11T08:08:08;22.60;58.30
19031;DHT22;9648;51.130;13.978;2022-08-11T08:10:53;22.70;56.80
19031;DHT22;9648;51.130;13.978;2022-08-11T08:13:40;22.80;56.40
19031;DHT22;9648;51.130;13.978;2022-08-11T08:16:24;22.80;56.00
19031;DHT22;9648;51.130;13.978;2022-08-11T08:19:11;22.90;56.40
19031;DHT22;9648;51.130;13.978;2022-08-11T08:21:39;23.00;56.30
19031;DHT22;9648;51.130;13.978;2022-08-11T08:24:07;23.10;56.40
19031;DHT22;9648;51.130;13.978;2022-08-11T08:26:34;23.10;56.00
19031;DHT22;9648;51.130;13.978;2022-08-11T08:29:19;23.20;56.20
19031;DHT22;9648;51.130;13.978;2022-08-11T08:32:05;23.30;54.80
19031;DHT22;9648;51.130;13.978;2022-08-11T08:34:32;23.40;54.10
19031;DHT22;9648;51.130;13.978;2022-08-11T08:37:01;23.40;53.60
19031;DHT22;9648;51.130;13.978;2022-08-11T08:39:27;23.50;53.90
19031;DHT22;9648;51.130;13.978;2022-08-11T08:41:58;23.60;53.90
19031;DHT22;9648;51.130;13.978;2022-08-11T08:44:25;23.60;52.20
19031;DHT22;9648;51.130;13.978;2022-08-11T08:46:54;23.60;52.60
19031;DHT22;9648;51.130;13.978;2022-08-11T08:49:24;23.70;53.70
19031;DHT22;9648;51.130;13.978;2022-08-11T08:51:53;23.70;52.00
19031;DHT22;9648;51.130;13.978;2022-08-11T08:54:27;23.70;52.10
19031;DHT22;9648;51.130;13.978;2022-08-11T08:56:55;23.80;52.80
19031;DHT22;9648;51.130;13.978;2022-08-11T08:59:25;24.00;51.40
19031;DHT22;9648;51.130;13.978;2022-08-11T09:01:56;24.20;51.60
19031;DHT22;9648;51.130;13.978;2022-08-11T09:04:24;24.40;50.60
19031;DHT22;9648;51.130;13.978;2022-08-11T09:06:52;24.60;50.70
19031;DHT22;9648;51.130;13.978;2022-08-11T09:09:19;24.60;49.80
19031;DHT22;9648;51.130;13.978;2022-08-11T09:11:48;24.60;49.00
19031;DHT22;9648;51.130;13.978;2022-08-11T09:14:23;24.40;49.00
19031;DHT22;9648;51.130;13.978;2022-08-11T09:17:10;24.60;49.00
19031;DHT22;9648;51.130;13.978;2022-08-11T09:19:37;24.70;48.30
19031;DHT22;9648;51.130;13.978;2022-08-11T09:22:04;24.70;47.30
19031;DHT22;9648;51.130;13.978;2022-08-11T09:24:49;24.80;47.40
19031;DHT22;9648;51.130;13.978;2022-08-11T09:27:36;25.00;47.50
19031;DHT22;9648;51.130;13.978;2022-08-11T09:30:05;25.20;47.60
19031;DHT22;9648;51.130;13.978;2022-08-11T09:32:32;25.30;46.80
19031;DHT22;9648;51.130;13.978;2022-08-11T09:35:00;25.20;45.20
19031;DHT22;9648;51.130;13.978;2022-08-11T09:37:29;25.40;45.40
19031;DHT22;9648;51.130;13.978;2022-08-11T09:40:14;25.50;45.20
19031;DHT22;9648;51.130;13.978;2022-08-11T09:43:01;25.60;43.10
19031;DHT22;9648;51.130;13.978;2022-08-11T09:45:47;25.60;43.70
19031;DHT22;9648;51.130;13.978;2022-08-11T09:48:16;25.80;43.30
19031;DHT22;9648;51.130;13.978;2022-08-11T09:50:44;25.90;43.50
19031;DHT22;9648;51.130;13.978;2022-08-11T09:53:11;25.80;41.90
19031;DHT22;9648;51.130;13.978;2022-08-11T09:55:38;25.80;43.10
19031;DHT22;9648;51.130;13.978;2022-08-11T09:58:06;25.90;43.20
19031;DHT22;9648;51.130;13.978;2022-08-11T10:00:38;25.90;42.20
19031;DHT22;9648;51.130;13.978;2022-08-11T10:03:08;25.70;42.30
19031;DHT22;9648;51.130;13.978;2022-08-11T10:05:37;25.80;42.60
19031;DHT22;9648;51.130;13.978;2022-08-11T10:08:26;25.80;41.40
19031;DHT22;9648;51.130;13.978;2022-08-11T10:10:54;25.80;41.00
19031;DHT22;9648;51.130;13.978;2022-08-11T10:13:28;25.80;39.30
19031;DHT22;9648;51.130;13.978;2022-08-11T10:16:02;25.70;39.60
19031;DHT22;9648;51.130;13.978;2022-08-11T10:18:33;25.70;39.70
19031;DHT22;9648;51.130;13.978;2022-08-11T10:21:16;25.80;39.10
19031;DHT22;9648;51.130;13.978;2022-08-11T10:23:47;25.70;38.10
19031;DHT22;9648;51.130;13.978;2022-08-11T10:26:33;25.80;38.50
19031;DHT22;9648;51.130;13.978;2022-08-11T10:29:20;25.90;35.20
19031;DHT22;9648;51.130;13.978;2022-08-11T10:32:05;26.00;35.50
19031;DHT22;9648;51.130;13.978;2022-08-11T10:34:51;26.20;36.90
19031;DHT22;9648;51.130;13.978;2022-08-11T10:37:21;26.20;35.30
19031;DHT22;9648;51.130;13.978;2022-08-11T10:39:49;26.10;36.40
19031;DHT22;9648;51.130;13.978;2022-08-11T10:42:16;26.20;36.30
19031;DHT22;9648;51.130;13.978;2022-08-11T10:45:05;26.30;34.40
19031;DHT22;9648;51.130;13.978;2022-08-11T10:47:55;26.40;35.30
19031;DHT22;9648;51.130;13.978;2022-08-11T10:50:22;26.40;34.00
19031;DHT22;9648;51.130;13.978;2022-08-11T10:53:08;26.40;33.40
19031;DHT22;9648;51.130;13.978;2022-08-11T10:55:53;26.20;33.30
19031;DHT22;9648;51.130;13.978;2022-08-11T10:58:38;26.20;33.50
19031;DHT22;9648;51.130;13.978;2022-08-11T11:01:21;26.20;32.50
19031;DHT22;9648;51.130;13.978;2022-08-11T11:03:50;26.30;32.60
19031;DHT22;9648;51.130;13.978;2022-08-11T11:06:22;26.30;32.00
19031;DHT22;9648;51.130;13.978;2022-08-11T11:08:54;26.40;31.50
19031;DHT22;9648;51.130;13.978;2022-08-11T11:11:23;26.40;28.80
19031;DHT22;9648;51.130;13.978;2022-08-11T11:14:15;26.30;28.30
19031;DHT22;9648;51.130;13.978;2022-08-11T11:17:02;26.40;30.40
19031;DHT22;9648;51.130;13.978;2022-08-11T11:19:49;26.30;29.60
19031;DHT22;9648;51.130;13.978;2022-08-11T11:22:19;26.40;29.60
19031;DHT22;9648;51.130;13.978;2022-08-11T11:25:12;26.40;28.50
19031;DHT22;9648;51.130;13.978;2022-08-11T11:27:52;26.60;29.20
19031;DHT22;9648;51.130;13.978;2022-08-11T11:30:20;26.60;29.00
19031;DHT22;9648;51.130;13.978;2022-08-11T11:33:00;26.60;29.10
19031;DHT22;9648;51.130;13.978;2022-08-11T11:35:40;26.60;29.00
19031;DHT22;9648;51.130;13.978;2022-08-11T11:38:13;26.60;29.20
19031;DHT22;9648;51.130;13.978;2022-08-11T11:40:41;26.70;29.00
19031;DHT22;9648;51.130;13.978;2022-08-11T11:43:09;26.70;28.40
19031;DHT22;9648;51.130;13.978;2022-08-11T11:45:36;26.60;29.20
19031;DHT22;9648;51.130;13.978;2022-08-11T11:48:07;26.50;29.10
19031;DHT22;9648;51.130;13.978;2022-08-11T11:50:36;26.70;29.80
19031;DHT22;9648;51.130;13.978;2022-08-11T11:53:05;26.90;28.60
19031;DHT22;9648;51.130;13.978;2022-08-11T11:55:32;27.00;27.80
19031;DHT22;9648;51.130;13.978;2022-08-11T11:58:00;27.00;28.40
19031;DHT22;9648;51.130;13.978;2022-08-11T12:00:46;27.00;29.00
19031;DHT22;9648;51.130;13.978;2022-08-11T12:03:33;27.10;28.60
19031;DHT22;9648;51.130;13.978;2022-08-11T12:06:02;27.00;29.10
19031;DHT22;9648;51.130;13.978;2022-08-11T12:08:30;27.00;29.00
19031;DHT22;9648;51.130;13.978;2022-08-11T12:10:59;27.10;28.30
19031;DHT22;9648;51.130;13.978;2022-08-11T12:13:46;27.20;28.50
19031;DHT22;9648;51.130;13.978;2022-08-11T12:16:16;27.30;27.60
19031;DHT22;9648;51.130;13.978;2022-08-11T12:18:45;27.20;27.70
19031;DHT22;9648;51.130;13.978;2022-08-11T12:21:14;27.20;27.40
19031;DHT22;9648;51.130;13.978;2022-08-11T12:23:43;27.20;27.50
19031;DHT22;9648;51.130;13.978;2022-08-11T12:26:29;27.00;27.40
19031;DHT22;9648;51.130;13.978;2022-08-11T12:29:16;26.90;27.40
19031;DHT22;9648;51.130;13.978;2022-08-11T12:31:44;27.10;27.90
19031;DHT22;9648;51.130;13.978;2022-08-11T12:34:14;27.20;27.70
19031;DHT22;9648;51.130;13.978;2022-08-11T12:36:45;27.60;28.30
19031;DHT22;9648;51.130;13.978;2022-08-11T12:39:19;27.70;27.70
19031;DHT22;9648;51.130;13.978;2022-08-11T12:42:08;27.70;27.50
19031;DHT22;9648;51.130;13.978;2022-08-11T12:44:54;27.80;27.80
19031;DHT22;9648;51.130;13.978;2022-08-11T12:47:40;28.00;26.90
19031;DHT22;9648;51.130;13.978;2022-08-11T12:50:23;28.10;28.10
19031;DHT22;9648;51.130;13.978;2022-08-11T12:53:11;28.20;27.30
19031;DHT22;9648;51.130;13.978;2022-08-11T12:55:39;28.30;27.80
19031;DHT22;9648;51.130;13.978;2022-08-11T12:58:29;28.00;27.20
19031;DHT22;9648;51.130;13.978;2022-08-11T13:00:57;28.00;28.00
19031;DHT22;9648;51.130;13.978;2022-08-11T13:03:41;28.00;28.00
19031;DHT22;9648;51.130;13.978;2022-08-11T13:06:28;28.10;27.90
19031;DHT22;9648;51.130;13.978;2022-08-11T13:08:57;28.10;28.70
19031;DHT22;9648;51.130;13.978;2022-08-11T13:11:24;28.10;28.40
19031;DHT22;9648;51.130;13.978;2022-08-11T13:14:10;27.80;28.10
19031;DHT22;9648;51.130;13.978;2022-08-11T13:16:37;27.90;28.70
19031;DHT22;9648;51.130;13.978;2022-08-11T13:19:19;28.00;28.10
19031;DHT22;9648;51.130;13.978;2022-08-11T13:21:48;28.20;28.40
19031;DHT22;9648;51.130;13.978;2022-08-11T13:24:16;28.30;28.60
19031;DHT22;9648;51.130;13.978;2022-08-11T13:26:43;28.00;27.60
19031;DHT22;9648;51.130;13.978;2022-08-11T13:29:11;28.00;28.20
19031;DHT22;9648;51.130;13.978;2022-08-11T13:31:39;27.80;28.30
19031;DHT22;9648;51.130;13.978;2022-08-11T13:34:08;27.70;28.30
19031;DHT22;9648;51.130;13.978;2022-08-11T13:36:36;27.70;28.40
19031;DHT22;9648;51.130;13.978;2022-08-11T13:39:04;27.70;28.50
19031;DHT22;9648;51.130;13.978;2022-08-11T13:41:31;27.60;29.10
19031;DHT22;9648;51.130;13.978;2022-08-11T13:44:06;27.70;29.10
19031;DHT22;9648;51.130;13.978;2022-08-11T13:46:34;27.60;28.60
19031;DHT22;9648;51.130;13.978;2022-08-11T13:49:01;27.50;28.60
19031;DHT22;9648;51.130;13.978;2022-08-11T13:51:29;27.40;28.50
19031;DHT22;9648;51.130;13.978;2022-08-11T13:53:59;27.20;28.90
19031;DHT22;9648;51.130;13.978;2022-08-11T13:56:29;27.30;29.00
19031;DHT22;9648;51.130;13.978;2022-08-11T13:58:57;27.30;28.90
19031;DHT22;9648;51.130;13.978;2022-08-11T14:01:28;27.50;28.70
19031;DHT22;9648;51.130;13.978;2022-08-11T14:03:58;27.60;29.00
19031;DHT22;9648;51.130;13.978;2022-08-11T14:06:28;27.70;28.90
19031;DHT22;9648;51.130;13.978;2022-08-11T14:08:55;27.90;28.70
19031;DHT22;9648;51.130;13.978;2022-08-11T14:11:22;28.00;28.40
19031;DHT22;9648;51.130;13.978;2022-08-11T14:14:11;27.90;28.10
19031;DHT22;9648;51.130;13.978;2022-08-11T14:16:41;27.80;28.00
19031;DHT22;9648;51.130;13.978;2022-08-11T14:19:11;27.90;27.90
19031;DHT22;9648;51.130;13.978;2022-08-11T14:21:42;27.90;28.10
19031;DHT22;9648;51.130;13.978;2022-08-11T14:24:27;28.00;28.80
19031;DHT22;9648;51.130;13.978;2022-08-11T14:26:54;28.00;28.20
19031;DHT22;9648;51.130;13.978;2022-08-11T14:29:26;27.90;28.20
19031;DHT22;9648;51.130;13.978;2022-08-11T14:31:58;27.60;28.10
19031;DHT22;9648;51.130;13.978;2022-08-11T14:34:28;27.30;28.30
19031;DHT22;9648;51.130;13.978;2022-08-11T14:36:57;27.30;28.60
19031;DHT22;9648;51.130;13.978;2022-08-11T14:39:26;27.50;28.80
19031;DHT22;9648;51.130;13.978;2022-08-11T14:41:55;27.40;28.60
19031;DHT22;9648;51.130;13.978;2022-08-11T14:44:43;27.60;28.80
19031;DHT22;9648;51.130;13.978;2022-08-11T14:47:28;27.70;28.20
19031;DHT22;9648;51.130;13.978;2022-08-11T14:49:57;27.80;27.80
19031;DHT22;9648;51.130;13.978;2022-08-11T14:52:25;27.80;28.10
19031;DHT22;9648;51.130;13.978;2022-08-11T14:54:53;27.70;28.00
19031;DHT22;9648;51.130;13.978;2022-08-11T14:57:39;27.70;28.20
19031;DHT22;9648;51.130;13.978;2022-08-11T15:00:12;27.60;27.80
19031;DHT22;9648;51.130;13.978;2022-08-11T15:02:44;27.50;27.90
19031;DHT22;9648;51.130;13.978;2022-08-11T15:05:29;27.40;27.90
19031;DHT22;9648;51.130;13.978;2022-08-11T15:07:57;27.40;28.10
19031;DHT22;9648;51.130;13.978;2022-08-11T15:10:25;27.60;28.10
19031;DHT22;9648;51.130;13.978;2022-08-11T15:12:52;27.80;28.00
19031;DHT22;9648;51.130;13.978;2022-08-11T15:15:21;27.90;27.70
19031;DHT22;9648;51.130;13.978;2022-08-11T15:18:11;28.00;27.80
19031;DHT22;9648;51.130;13.978;2022-08-11T15:20:38;28.10;28.10
19031;DHT22;9648;51.130;13.978;2022-08-11T15:23:22;28.00;27.50
19031;DHT22;9648;51.130;13.978;2022-08-11T15:26:10;27.90;28.00
19031;DHT22;9648;51.130;13.978;2022-08-11T15:28:47;28.10;28.60
19031;DHT22;9648;51.130;13.978;2022-08-11T15:31:35;28.20;27.70
19031;DHT22;9648;51.130;13.978;2022-08-11T15:34:27;28.10;27.40
19031;DHT22;9648;51.130;13.978;2022-08-11T15:37:14;28.10;27.70
19031;DHT22;9648;51.130;13.978;2022-08-11T15:39:55;28.00;27.50
19031;DHT22;9648;51.130;13.978;2022-08-11T15:42:46;27.80;27.80
19031;DHT22;9648;51.130;13.978;2022-08-11T15:45:32;27.80;28.00
19031;DHT22;9648;51.130;13.978;2022-08-11T15:48:21;27.90;28.00
19031;DHT22;9648;51.130;13.978;2022-08-11T15:50:52;27.90;27.90
19031;DHT22;9648;51.130;13.978;2022-08-11T15:53:26;27.90;27.90
19031;DHT22;9648;51.130;13.978;2022-08-11T15:55:54;27.90;27.90
19031;DHT22;9648;51.130;13.978;2022-08-11T15:58:22;27.80;28.20
19031;DHT22;9648;51.130;13.978;2022-08-11T16:01:09;27.60;28.10
19031;DHT22;9648;51.130;13.978;2022-08-11T16:04:00;27.50;28.30
19031;DHT22;9648;51.130;13.978;2022-08-11T16:06:41;27.60;28.40
19031;DHT22;9648;51.130;13.978;2022-08-11T16:09:11;27.60;28.50
19031;DHT22;9648;51.130;13.978;2022-08-11T16:11:40;27.70;28.70
19031;DHT22;9648;51.130;13.978;2022-08-11T16:14:10;27.80;28.50
19031;DHT22;9648;51.130;13.978;2022-08-11T16:16:55;28.00;28.30
19031;DHT22;9648;51.130;13.978;2022-08-11T16:19:26;27.90;28.20
19031;DHT22;9648;51.130;13.978;2022-08-11T16:22:01;27.80;28.10
19031;DHT22;9648;51.130;13.978;2022-08-11T16:24:30;27.80;28.10
19031;DHT22;9648;51.130;13.978;2022-08-11T16:26:58;27.70;28.30
19031;DHT22;9648;51.130;13.978;2022-08-11T16:29:25;27.80;28.60
19031;DHT22;9648;51.130;13.978;2022-08-11T16:31:56;27.90;28.30
19031;DHT22;9648;51.130;13.978;2022-08-11T16:34:43;28.20;28.40
19031;DHT22;9648;51.130;13.978;2022-08-11T16:37:30;28.40;27.60
19031;DHT22;9648;51.130;13.978;2022-08-11T16:40:17;28.80;27.30
19031;DHT22;9648;51.130;13.978;2022-08-11T16:42:45;28.80;27.10
19031;DHT22;9648;51.130;13.978;2022-08-11T16:45:31;28.70;27.40
19031;DHT22;9648;51.130;13.978;2022-08-11T16:48:17;28.60;28.00
19031;DHT22;9648;51.130;13.978;2022-08-11T16:50:46;28.30;27.70
19031;DHT22;9648;51.130;13.978;2022-08-11T16:53:13;28.10;28.00
19031;DHT22;9648;51.130;13.978;2022-08-11T16:55:42;27.70;28.00
19031;DHT22;9648;51.130;13.978;2022-08-11T16:58:09;27.50;28.60
19031;DHT22;9648;51.130;13.978;2022-08-11T17:00:55;27.40;28.90
19031;DHT22;9648;51.130;13.978;2022-08-11T17:03:23;27.30;29.20
19031;DHT22;9648;51.130;13.978;2022-08-11T17:06:10;27.20;29.00
19031;DHT22;9648;51.130;13.978;2022-08-11T17:08:56;27.00;29.90
19031;DHT22;9648;51.130;13.978;2022-08-11T17:11:43;26.90;29.50
19031;DHT22;9648;51.130;13.978;2022-08-11T17:14:36;26.80;29.90
19031;DHT22;9648;51.130;13.978;2022-08-11T17:17:08;26.50;29.70
19031;DHT22;9648;51.130;13.978;2022-08-11T17:19:40;26.40;30.10